PHX weather

Phoenix Sky Harbor International Airport
Phoenix, Arizona, United States

Public forecast

Using degrees Fahrenheit for public forecast. Weather courtesy of forecast.io.

METAR (pilot weather report)

Retrieved 2017/06/27 01:51 UTC (1 hour ago):

KPHX 270151Z 24012KT 10SM FEW120 FEW200 43/03 A2972 RMK AO2 SLP041 T04280033

TAF (pilot weather forecast)

Forecast is more than 12 hours old.

Retrieved 2017/06/26 00:33 UTC (1 day ago):

TAF KPHX 262330Z 2700/2724 27014G25KT P6SM FEW250 FM270300 27010KT P6SM FEW200 FM271200 12005KT P6SM SKC FM271900 25010KT P6SM SKC TEMPO 2720/2724 25015G22KT